Providence, Rhode Island
Traffic Map
Current Weather Conditions
Providence, Rhode Island
Overcast Light Rain
Overcast
76°
Feels Like: 76°
Wind Chill: 76° Ceiling: 700
Heat Index: 76° Visibility: 3mi
Dew Point: 76° Wind: 9mph
Humidity: 100% Direction: 220° (SW)
Pressure: 29.81in Gusts: 0mph
Raw Report DataKPVD 190351Z 22008KT 3SM -RA BR OVC007 24/24 A2981 RMK AO2 SFC VIS 4 LTG DSNT E AND SE SLP093 LAST RAE00B32E42DZB00E32B42 TSB0253E35 CIG 006V014 TS MOV E CB DSNT E-SE MOV E P0000 T02440244
Traffic Incident Summary
Active as of:
Severity:
Category:
InformationThere was an issue retrieving the traffic information for this location. Please try a different location or try again shortly.
Advertisements